Time;durP1;ratioP1;P1;durP2;ratioP2;P2;SDS_P1;SDS_P2;PMS_P1;PMS_P2;Temp;Humidity;BMP_temperature;BMP_pressure;BME280_temperature;BME280_humidity;BME280_pressure;Samples;Min_cycle;Max_cycle;Signal;HPM_P1;HPM_P2
2021/10/15 00:02:18;;;;;;;4.43;2.03;;;;;;;3.87;100.00;94974.84;10237639;28;20693;-71
2021/10/15 00:07:18;;;;;;;1.73;1.30;;;;;;;3.83;100.00;94968.34;10236787;29;20027;-72
2021/10/15 00:12:18;;;;;;;2.65;1.20;;;;;;;3.77;100.00;94962.09;10238334;28;20039;-73
2021/10/15 00:17:19;;;;;;;2.63;1.30;;;;;;;3.82;100.00;94966.72;10236000;28;20242;-75
2021/10/15 00:22:19;;;;;;;1.67;1.10;;;;;;;3.83;100.00;94957.72;10236339;29;20830;-71
2021/10/15 00:27:20;;;;;;;2.28;1.05;;;;;;;3.73;100.00;94959.06;10236538;29;20031;-73
2021/10/15 00:32:20;;;;;;;1.87;1.27;;;;;;;3.68;100.00;94961.56;10235832;28;20031;-73
2021/10/15 00:37:20;;;;;;;2.28;1.13;;;;;;;3.73;100.00;94958.25;10229068;29;20299;-71
2021/10/15 00:42:21;;;;;;;4.30;1.60;;;;;;;3.66;100.00;94946.91;10209692;28;20077;-68
2021/10/15 00:47:21;;;;;;;4.32;1.52;;;;;;;3.66;100.00;94937.06;10236910;28;20772;-67
2021/10/15 00:52:22;;;;;;;2.00;1.10;;;;;;;3.76;100.00;94939.19;10235577;29;20031;-68
2021/10/15 00:57:22;;;;;;;2.15;1.15;;;;;;;3.83;100.00;94933.78;10238011;28;20027;-69
2021/10/15 01:02:23;;;;;;;1.80;0.77;;;;;;;3.81;100.00;94928.69;10243606;29;20318;-69
2021/10/15 01:07:24;;;;;;;2.25;0.88;;;;;;;3.76;100.00;94933.88;10238637;29;20075;-69
2021/10/15 01:12:25;;;;;;;4.05;0.90;;;;;;;3.79;100.00;94921.97;10242813;28;20031;-69
2021/10/15 01:17:25;;;;;;;2.30;1.08;;;;;;;3.99;100.00;94919.84;10227006;29;20471;-70
2021/10/15 01:22:27;;;;;;;4.32;1.23;;;;;;;4.15;100.00;94914.91;10241619;28;20049;-73
2021/10/15 01:27:28;;;;;;;1.15;0.55;;;;;;;4.16;100.00;94904.06;10242451;29;20030;-69
2021/10/15 01:32:28;;;;;;;0.95;0.50;;;;;;;4.19;100.00;94900.94;10241911;28;20487;-67
2021/10/15 01:37:29;;;;;;;2.85;1.05;;;;;;;4.23;100.00;94899.44;10225855;29;20027;-68
2021/10/15 01:47:48;;;;;;;1.30;0.68;;;;;;;4.20;100.00;94891.91;10242599;29;20055;-68
2021/10/15 01:52:50;;;;;;;1.10;0.75;;;;;;;4.29;100.00;94884.41;10228551;29;20126;-73
2021/10/15 01:57:50;;;;;;;2.47;0.90;;;;;;;4.33;100.00;94890.88;10241149;29;20031;-66
2021/10/15 02:02:50;;;;;;;1.58;0.82;;;;;;;4.35;100.00;94880.81;10241166;29;20485;-68
2021/10/15 02:07:51;;;;;;;1.77;0.93;;;;;;;4.33;100.00;94890.88;10241549;28;20035;-68
2021/10/15 02:12:52;;;;;;;1.05;0.95;;;;;;;4.36;100.00;94879.78;10240373;29;20110;-67
2021/10/15 02:17:52;;;;;;;1.48;0.93;;;;;;;4.26;100.00;94880.34;10240452;29;20089;-69
2021/10/15 02:22:54;;;;;;;0.93;0.85;;;;;;;4.25;100.00;94881.38;10240406;29;20031;-69
2021/10/15 02:27:55;;;;;;;1.55;1.25;;;;;;;4.13;100.00;94874.44;10224194;29;20489;-68
2021/10/15 02:32:56;;;;;;;1.88;1.10;;;;;;;4.13;100.00;94874.44;10240039;29;20126;-69
2021/10/15 02:38:00;;;;;;;1.48;1.13;;;;;;;4.25;100.00;94872.59;10240073;28;20043;-69
2021/10/15 02:43:00;;;;;;;2.33;1.70;;;;;;;4.31;100.00;94873.53;10219790;28;20407;-68
2021/10/15 02:48:01;;;;;;;3.70;1.73;;;;;;;4.33;100.00;94874.91;10235708;28;20023;-68
2021/10/15 02:53:01;;;;;;;2.40;2.00;;;;;;;4.36;100.00;94879.78;10239159;29;20350;-68
2021/10/15 02:58:02;;;;;;;6.70;4.63;;;;;;;4.42;100.00;94876.22;10239049;29;20297;-68
2021/10/15 03:03:02;;;;;;;2.70;2.40;;;;;;;4.42;100.00;94872.72;10240415;28;20045;-73
2021/10/15 03:08:03;;;;;;;7.07;4.20;;;;;;;4.42;100.00;94873.56;10239227;28;20035;-69
2021/10/15 03:13:03;;;;;;;5.95;3.15;;;;;;;4.41;100.00;94876.41;10239201;28;20508;-73
2021/10/15 03:18:04;;;;;;;6.30;4.55;;;;;;;4.35;100.00;94875.47;10238180;29;20023;-72
2021/10/15 03:23:04;;;;;;;6.35;4.53;;;;;;;4.42;100.00;94868.22;10237126;28;20039;-75
2021/10/15 03:28:05;;;;;;;6.75;4.50;;;;;;;4.49;100.00;94859.31;10227231;29;20042;-72
2021/10/15 03:33:06;;;;;;;6.43;4.07;;;;;;;4.34;100.00;94863.25;10237620;28;20510;-72
2021/10/15 03:38:06;;;;;;;7.28;3.90;;;;;;;4.34;100.00;94859.75;10238887;28;20043;-67
2021/10/15 03:43:07;;;;;;;6.32;4.47;;;;;;;4.13;100.00;94848.66;10237008;29;20035;-69
2021/10/15 03:48:07;;;;;;;9.93;4.95;;;;;;;4.19;100.00;94858.38;10238402;28;20027;-68
2021/10/15 03:53:08;;;;;;;7.45;5.00;;;;;;;4.11;100.00;94840.09;10237430;28;20673;-68
2021/10/15 03:58:08;;;;;;;7.70;5.07;;;;;;;4.10;100.00;94838.44;10235696;28;20541;-67
2021/10/15 04:03:09;;;;;;;7.95;5.38;;;;;;;4.10;100.00;94843.78;10236168;28;20413;-68
2021/10/15 04:08:09;;;;;;;8.85;5.35;;;;;;;4.14;100.00;94836.16;10236370;29;20031;-69
2021/10/15 04:13:09;;;;;;;6.17;3.53;;;;;;;4.21;100.00;94842.97;10235638;29;20027;-73
2021/10/15 04:18:10;;;;;;;3.90;2.37;;;;;;;4.07;100.00;94837.06;10235231;29;20290;-69
2021/10/15 04:23:10;;;;;;;2.27;1.90;;;;;;;3.99;100.00;94831.28;10236498;29;20665;-72
2021/10/15 04:28:11;;;;;;;2.55;1.83;;;;;;;4.03;100.00;94838.59;10236213;28;20632;-68
2021/10/15 04:33:11;;;;;;;1.90;1.48;;;;;;;3.98;100.00;94843.78;10215264;28;20447;-72
2021/10/15 04:38:12;;;;;;;0.80;0.80;;;;;;;3.99;100.00;94844.56;10220626;29;20043;-67
2021/10/15 04:43:12;;;;;;;3.05;0.70;;;;;;;4.00;100.00;94832.91;10205024;28;20035;-69
2021/10/15 04:48:13;;;;;;;1.00;1.00;;;;;;;3.97;100.00;94846.66;10225879;29;20126;-74
2021/10/15 04:53:13;;;;;;;5.53;1.20;;;;;;;3.91;100.00;94841.22;10239989;28;20062;-74
2021/10/15 04:58:14;;;;;;;2.05;1.67;;;;;;;4.03;100.00;94849.22;10243243;28;20122;-66
2021/10/15 05:03:14;;;;;;;1.80;1.40;;;;;;;4.18;100.00;94850.63;10225289;29;20071;-68
2021/10/15 05:08:16;;;;;;;3.63;1.58;;;;;;;4.12;100.00;94849.69;10243541;29;20122;-74
2021/10/15 05:13:18;;;;;;;1.83;1.50;;;;;;;4.11;100.00;94856.84;10247767;28;20043;-68
2021/10/15 05:18:18;;;;;;;8.48;4.82;;;;;;;4.17;100.00;94852.47;10241598;29;20549;-73
2021/10/15 05:23:19;;;;;;;2.80;1.60;;;;;;;4.15;100.00;94851.88;10242590;29;20027;-72
2021/10/15 05:28:19;;;;;;;3.85;2.13;;;;;;;4.00;100.00;94849.66;10241757;28;20040;-74
2021/10/15 05:33:20;;;;;;;6.22;2.45;;;;;;;4.11;100.00;94832.09;10224793;29;20069;-72
2021/10/15 05:38:20;;;;;;;5.20;2.35;;;;;;;4.33;100.00;94848.31;10241771;29;20031;-68
2021/10/15 05:43:21;;;;;;;5.38;2.47;;;;;;;4.43;100.00;94853.84;10224056;28;20054;-67
2021/10/15 05:48:23;;;;;;;5.05;2.08;;;;;;;4.48;100.00;94855.00;10241359;28;20035;-69
2021/10/15 05:53:25;;;;;;;6.38;2.38;;;;;;;4.37;100.00;94859.31;10240873;29;20113;-73
2021/10/15 06:03:48;;;;;;;3.40;2.03;;;;;;;4.37;100.00;94854.00;10241840;29;20070;-73
2021/10/15 06:19:17;;;;;;;5.88;1.85;;;;;;;4.60;100.00;94839.84;10241625;29;20414;-71
2021/10/15 06:24:18;;;;;;;1.60;1.45;;;;;;;4.42;100.00;94835.47;10241979;28;20035;-70
2021/10/15 06:29:19;;;;;;;2.47;1.88;;;;;;;4.34;100.00;94841.13;10239740;28;20122;-69
2021/10/15 06:34:19;;;;;;;1.80;1.27;;;;;;;4.33;100.00;94843.00;10239376;29;20543;-68
2021/10/15 06:39:20;;;;;;;1.35;1.27;;;;;;;4.23;100.00;94840.09;10239363;29;20286;-68
2021/10/15 06:44:20;;;;;;;2.85;2.30;;;;;;;4.23;100.00;94838.25;10239484;29;20421;-68
2021/10/15 06:49:21;;;;;;;4.00;2.75;;;;;;;4.44;100.00;94846.69;10238708;29;20033;-73
2021/10/15 06:54:21;;;;;;;6.07;2.90;;;;;;;4.57;100.00;94835.00;10238971;28;20027;-69
2021/10/15 06:59:22;;;;;;;5.18;3.45;;;;;;;4.76;100.00;94841.81;10239879;28;20482;-74
2021/10/15 07:04:22;;;;;;;5.75;3.50;;;;;;;4.68;100.00;94846.69;10240011;28;20031;-73
2021/10/15 07:09:22;;;;;;;6.20;3.07;;;;;;;4.72;100.00;94823.88;10238602;29;20027;-74
2021/10/15 07:14:26;;;;;;;6.38;3.50;;;;;;;4.78;100.00;94823.75;10222913;29;20354;-70
2021/10/15 07:19:27;;;;;;;4.82;2.95;;;;;;;4.78;100.00;94838.91;10237467;29;20123;-69
2021/10/15 07:24:28;;;;;;;9.03;5.40;;;;;;;4.77;100.00;94843.44;10238895;28;20037;-75
2021/10/15 07:29:28;;;;;;;9.95;4.32;;;;;;;4.79;100.00;94845.88;10238012;29;20367;-70
2021/10/15 07:34:29;;;;;;;6.05;4.25;;;;;;;4.72;100.00;94829.22;10236408;29;20047;-69
2021/10/15 07:39:29;;;;;;;7.93;4.90;;;;;;;4.72;100.00;94829.22;10237453;28;20109;-73
2021/10/15 07:44:31;;;;;;;9.85;5.15;;;;;;;4.72;100.00;94827.34;10236958;29;20286;-70
2021/10/15 07:49:31;;;;;;;12.90;6.88;;;;;;;4.70;100.00;94820.63;10238312;28;20021;-70
2021/10/15 07:54:33;;;;;;;10.43;6.35;;;;;;;4.75;100.00;94823.41;10236754;28;20053;-73
2021/10/15 07:59:34;;;;;;;18.05;8.55;;;;;;;4.76;100.00;94817.84;10252525;28;20031;-74
2021/10/15 08:04:35;;;;;;;14.50;7.47;;;;;;;4.83;100.00;94819.56;10237676;28;20034;-72
2021/10/15 08:09:36;;;;;;;14.75;7.93;;;;;;;4.82;100.00;94815.31;10237369;28;20030;-73
2021/10/15 08:14:36;;;;;;;14.07;7.90;;;;;;;4.94;100.00;94814.22;10236479;29;20136;-69
2021/10/15 08:19:38;;;;;;;13.68;6.78;;;;;;;4.99;100.00;94807.38;10236016;29;20035;-66
2021/10/15 08:24:38;;;;;;;13.40;7.68;;;;;;;5.03;100.00;94803.19;10212853;29;20032;-73
2021/10/15 08:29:39;;;;;;;10.02;5.68;;;;;;;4.92;100.00;94802.19;10196260;29;20443;-66
2021/10/15 08:34:40;;;;;;;5.72;2.97;;;;;;;4.87;100.00;94810.06;10195378;29;20062;-73
2021/10/15 08:39:40;;;;;;;7.18;3.30;;;;;;;4.89;100.00;94800.00;10197027;29;20032;-72
2021/10/15 08:44:45;;;;;;;5.90;2.25;;;;;;;4.89;100.00;94808.00;10224393;29;20023;-70
2021/10/15 08:49:46;;;;;;;2.63;2.10;;;;;;;4.92;100.00;94796.84;10235399;29;20019;-68
2021/10/15 08:54:46;;;;;;;10.43;2.70;;;;;;;5.05;100.00;94795.78;10235539;28;20502;-68
2021/10/15 08:59:50;;;;;;;2.65;1.92;;;;;;;5.04;100.00;94788.84;10236662;28;20600;-68
2021/10/15 09:04:56;;;;;;;1.70;1.40;;;;;;;5.01;100.00;94789.31;10235096;28;20030;-67
2021/10/15 09:10:19;;;;;;;2.40;1.63;;;;;;;4.98;100.00;94787.91;10235166;29;20098;-68
2021/10/15 09:15:20;;;;;;;3.45;1.92;;;;;;;5.07;100.00;94789.16;10235042;29;20609;-69
2021/10/15 09:20:28;;;;;;;2.00;1.63;;;;;;;5.10;100.00;94782.56;10240155;28;20033;-70
2021/10/15 09:25:36;;;;;;;;;;;;;;;5.20;100.00;94771.28;10241985;28;20118;-70
2021/10/15 09:30:40;;;;;;;3.55;2.28;;;;;;;5.22;100.00;94782.50;10242220;29;19950;-69
2021/10/15 09:35:41;;;;;;;3.72;1.88;;;;;;;5.20;100.00;94788.06;10241102;28;20139;-68
2021/10/15 09:40:48;;;;;;;3.42;1.83;;;;;;;5.22;100.00;94783.31;10225792;29;20035;-75
2021/10/15 09:45:52;;;;;;;6.35;2.65;;;;;;;5.24;100.00;94791.88;10240949;28;20114;-74
2021/10/15 09:51:12;;;;;;;2.22;1.70;;;;;;;5.17;100.00;94782.44;10240882;28;20466;-74
2021/10/15 09:56:39;;;;;;;3.83;2.58;;;;;;;5.36;100.00;94783.03;10240199;28;20027;-69
2021/10/15 10:01:41;;;;;;;9.40;3.88;;;;;;;5.57;100.00;94781.56;10241337;28;20031;-69
2021/10/15 10:06:42;;;;;;;7.32;4.20;;;;;;;5.70;100.00;94783.09;10240040;29;20027;-69
2021/10/15 10:11:44;;;;;;;4.80;3.08;;;;;;;5.80;100.00;94786.75;10239436;29;20019;-68
2021/10/15 10:16:45;;;;;;;4.78;2.47;;;;;;;5.74;100.00;94777.03;10240149;28;20027;-73
2021/10/15 10:21:46;;;;;;;2.70;1.95;;;;;;;5.82;100.00;94771.28;10240567;28;20027;-69
2021/10/15 10:26:57;;;;;;;3.50;2.38;;;;;;;5.90;100.00;94778.09;10221689;29;20413;-69
2021/10/15 10:32:27;;;;;;;2.42;1.75;;;;;;;5.93;100.00;94774.94;10239816;28;20106;-67
2021/10/15 10:37:28;;;;;;;1.70;1.60;;;;;;;5.94;100.00;94771.19;10222031;29;20179;-74
2021/10/15 10:42:30;;;;;;;1.58;1.27;;;;;;;5.88;100.00;94758.84;10238613;28;20136;-68
2021/10/15 10:47:31;;;;;;;5.20;2.13;;;;;;;5.99;100.00;94768.66;10223469;29;20059;-71
2021/10/15 10:52:34;;;;;;;1.52;1.42;;;;;;;5.91;100.00;94754.91;10238533;29;20443;-69
2021/10/15 10:57:41;;;;;;;2.40;2.20;;;;;;;6.03;100.00;94760.16;10238843;29;20482;-70
2021/10/15 11:02:51;;;;;;;2.67;1.52;;;;;;;6.04;100.00;94757.28;10237481;29;20027;-67
2021/10/15 11:08:23;;;;;;;4.65;2.50;;;;;;;6.05;100.00;94742.88;10222890;29;20027;-69
2021/10/15 11:13:34;;;;;;;8.00;3.78;;;;;;;5.96;100.00;94730.97;10238872;28;20035;-70
2021/10/15 11:18:37;;;;;;;5.35;3.15;;;;;;;6.03;100.00;94725.47;10240147;28;20044;-67
2021/10/15 11:23:39;;;;;;;7.88;3.05;;;;;;;5.94;100.00;94719.72;10237541;29;20396;-70
2021/10/15 11:28:40;;;;;;;3.25;2.38;;;;;;;6.04;100.00;94711.09;10221138;29;20065;-69
2021/10/15 11:33:40;;;;;;;2.60;2.08;;;;;;;6.07;100.00;94715.94;10237056;28;20494;-73
2021/10/15 11:38:41;;;;;;;4.22;3.05;;;;;;;6.09;100.00;94695.97;10237043;29;20063;-74
2021/10/15 11:43:43;;;;;;;4.82;3.35;;;;;;;6.10;100.00;94684.25;10219573;28;20091;-74
2021/10/15 11:48:48;;;;;;;6.55;3.47;;;;;;;6.09;100.00;94676.50;10223279;29;20067;-67
2021/10/15 11:53:51;;;;;;;4.35;2.97;;;;;;;6.13;100.00;94662.41;10181375;28;20019;-74
2021/10/15 11:58:55;;;;;;;5.97;3.33;;;;;;;6.12;100.00;94651.97;10196743;28;20024;-69
2021/10/15 12:04:04;;;;;;;4.63;3.75;;;;;;;6.31;100.00;94637.28;10165333;29;20037;-68
2021/10/15 12:09:15;;;;;;;5.03;4.07;;;;;;;6.41;100.00;94627.78;10165193;29;20038;-63
2021/10/15 12:14:31;;;;;;;7.15;3.85;;;;;;;6.31;100.00;94621.25;10196803;29;20425;-72
2021/10/15 12:19:37;;;;;;;6.68;3.53;;;;;;;6.49;100.00;94603.31;10196371;28;20036;-74
2021/10/15 12:24:47;;;;;;;6.47;4.38;;;;;;;6.52;100.00;94594.81;10204410;29;20040;-68
2021/10/15 12:29:53;;;;;;;8.30;4.90;;;;;;;6.55;100.00;94601.50;10214994;29;20655;-68
2021/10/15 12:34:58;;;;;;;8.88;6.18;;;;;;;6.54;100.00;94587.34;10230987;28;20051;-70
2021/10/15 12:40:24;;;;;;;10.43;7.30;;;;;;;6.53;100.00;94582.25;10228419;29;20035;-68
2021/10/15 12:45:27;;;;;;;13.88;7.55;;;;;;;6.64;100.00;94568.78;10219381;28;20501;-69
2021/10/15 12:50:30;;;;;;;11.60;7.63;;;;;;;6.61;100.00;94571.91;10198040;29;20118;-68
2021/10/15 12:55:30;;;;;;;15.80;8.70;;;;;;;6.78;100.00;94576.34;10209128;29;20119;-67
2021/10/15 13:00:44;;;;;;;9.85;5.53;;;;;;;6.93;100.00;94568.47;10238505;29;20405;-69
2021/10/15 13:05:46;;;;;;;9.02;4.70;;;;;;;6.96;100.00;94585.88;10243420;29;20031;-67
2021/10/15 13:10:48;;;;;;;8.07;5.53;;;;;;;6.87;100.00;94587.41;10226583;29;20078;-67
2021/10/15 13:15:49;;;;;;;13.13;6.95;;;;;;;6.86;100.00;94583.91;10242330;29;20512;-69
2021/10/15 13:20:50;;;;;;;8.63;5.57;;;;;;;6.93;100.00;94579.16;10241958;29;20027;-65
2021/10/15 13:25:51;;;;;;;8.00;5.22;;;;;;;7.06;100.00;94582.47;10224401;28;20297;-66
2021/10/15 13:30:52;;;;;;;9.35;5.68;;;;;;;6.98;100.00;94583.75;10207736;29;20030;-67
2021/10/15 13:35:56;;;;;;;6.28;4.45;;;;;;;6.86;100.00;94581.25;10240803;29;20050;-72
2021/10/15 13:51:03;;;;;;;5.35;3.22;;;;;;;6.83;100.00;94577.22;10241642;28;20462;-69
2021/10/15 13:56:06;;;;;;;5.93;3.33;;;;;;;6.86;100.00;94567.09;10224364;29;20039;-67
2021/10/15 14:01:16;;;;;;;5.55;4.07;;;;;;;6.82;100.00;94572.13;10240289;28;20070;-73
2021/10/15 14:06:17;;;;;;;7.00;3.25;;;;;;;6.80;100.00;94571.59;10239203;28;20505;-72
2021/10/15 14:11:18;;;;;;;6.60;4.13;;;;;;;6.78;100.00;94568.34;10235558;29;20032;-74
2021/10/15 14:16:19;;;;;;;5.93;3.58;;;;;;;6.79;100.00;94561.94;10211389;29;20038;-66
2021/10/15 14:21:19;;;;;;;4.85;3.05;;;;;;;6.79;100.00;94548.59;10239127;29;20034;-70
2021/10/15 14:26:19;;;;;;;8.93;3.33;;;;;;;6.76;100.00;94541.88;10219976;28;20103;-67
2021/10/15 14:31:20;;;;;;;5.13;3.55;;;;;;;6.87;100.00;94536.66;10204318;29;20146;-69
2021/10/15 14:36:21;;;;;;;5.40;3.38;;;;;;;6.77;100.00;94526.69;10235398;29;20049;-69
2021/10/15 14:41:21;;;;;;;3.70;3.20;;;;;;;6.60;100.00;94535.63;10236431;28;20035;-68
2021/10/15 14:46:22;;;;;;;7.53;4.55;;;;;;;6.64;100.00;94536.72;10210612;29;20031;-69
2021/10/15 14:51:23;;;;;;;3.42;2.88;;;;;;;6.53;100.00;94521.66;10237967;29;20035;-67
2021/10/15 14:56:24;;;;;;;3.30;2.42;;;;;;;6.43;100.00;94510.88;10226675;29;20062;-69
2021/10/15 15:01:25;;;;;;;4.57;2.70;;;;;;;6.46;100.00;94519.19;10218374;28;20050;-67
2021/10/15 15:06:25;;;;;;;5.15;3.25;;;;;;;6.37;100.00;94533.25;10237394;28;20110;-66
2021/10/15 15:11:25;;;;;;;3.38;2.33;;;;;;;6.43;100.00;94522.38;10238703;28;20118;-74
2021/10/15 15:16:26;;;;;;;4.05;3.08;;;;;;;6.49;100.00;94533.91;10235326;28;20042;-70
2021/10/15 15:21:26;;;;;;;3.03;2.53;;;;;;;6.63;100.00;94527.09;10237239;29;20016;-68
2021/10/15 15:26:27;;;;;;;4.20;2.88;;;;;;;6.75;100.00;94532.25;10214809;29;20433;-71
2021/10/15 15:31:27;;;;;;;3.80;2.70;;;;;;;6.77;100.00;94521.34;10217680;28;20066;-72
2021/10/15 15:36:28;;;;;;;3.95;2.30;;;;;;;6.82;100.00;94519.53;10235716;29;20085;-73
2021/10/15 15:41:28;;;;;;;6.85;3.05;;;;;;;6.84;100.00;94521.94;10237203;28;20024;-69
2021/10/15 15:46:29;;;;;;;4.78;3.17;;;;;;;6.82;100.00;94526.72;10237041;28;20039;-73
2021/10/15 15:51:33;;;;;;;5.60;3.63;;;;;;;6.88;100.00;94531.06;10212392;29;20106;-72
2021/10/15 15:56:33;;;;;;;4.93;3.28;;;;;;;6.93;100.00;94539.09;10197699;29;20031;-68
2021/10/15 16:01:33;;;;;;;8.00;4.40;;;;;;;6.97;100.00;94526.03;10181029;29;20028;-67
2021/10/15 16:06:34;;;;;;;7.18;3.53;;;;;;;7.00;100.00;94526.34;10227021;29;20027;-72
2021/10/15 16:11:34;;;;;;;4.80;3.50;;;;;;;6.90;100.00;94536.13;10211706;28;20023;-67
2021/10/15 16:16:35;;;;;;;4.60;2.85;;;;;;;6.93;100.00;94527.59;10196153;29;20278;-73
2021/10/15 16:21:35;;;;;;;4.78;2.95;;;;;;;6.82;100.00;94529.38;10218274;29;20036;-71
2021/10/15 16:26:36;;;;;;;7.43;5.10;;;;;;;6.92;100.00;94528.66;10234301;28;20027;-72
2021/10/15 16:31:36;;;;;;;8.82;5.15;;;;;;;6.87;100.00;94537.44;10223494;28;20015;-71
2021/10/15 16:36:36;;;;;;;10.50;6.97;;;;;;;6.91;100.00;94535.09;10208269;29;20630;-72
2021/10/15 16:41:37;;;;;;;12.20;7.03;;;;;;;6.88;100.00;94533.72;10216865;29;20299;-67
2021/10/15 16:46:38;;;;;;;16.73;7.87;;;;;;;6.86;100.00;94516.34;10224690;29;20465;-67
2021/10/15 16:51:39;;;;;;;17.00;8.48;;;;;;;6.82;100.00;94502.66;10224292;28;20280;-72
2021/10/15 16:56:40;;;;;;;13.93;8.38;;;;;;;6.87;100.00;94501.94;10243808;29;20448;-73
2021/10/15 17:01:41;;;;;;;12.27;7.18;;;;;;;6.86;100.00;94498.44;10247413;28;20027;-68
2021/10/15 17:06:41;;;;;;;13.32;8.68;;;;;;;6.89;100.00;94503.25;10231385;29;20031;-67
2021/10/15 17:11:42;;;;;;;12.55;6.32;;;;;;;6.84;100.00;94501.38;10231204;28;20015;-67
2021/10/15 17:16:43;;;;;;;10.98;6.38;;;;;;;6.87;100.00;94485.91;10246482;29;20453;-71
2021/10/15 17:21:44;;;;;;;14.75;7.95;;;;;;;6.91;100.00;94498.47;10230035;28;20034;-72
2021/10/15 17:26:44;;;;;;;13.95;8.75;;;;;;;7.01;100.00;94495.06;10235297;28;20398;-72
2021/10/15 17:31:45;;;;;;;14.13;7.78;;;;;;;7.04;100.00;94491.09;10245989;28;20015;-72
2021/10/15 17:36:45;;;;;;;14.70;7.55;;;;;;;7.04;100.00;94501.78;10247184;28;20055;-72
2021/10/15 17:41:45;;;;;;;15.77;8.88;;;;;;;7.12;100.00;94491.41;10242031;28;20493;-72
2021/10/15 17:46:47;;;;;;;33.33;16.17;;;;;;;6.91;100.00;94484.31;10240256;29;20130;-71
2021/10/15 17:51:47;;;;;;;27.50;12.50;;;;;;;6.65;100.00;94486.78;10240512;29;20381;-71
2021/10/15 17:56:48;;;;;;;25.40;13.32;;;;;;;6.46;100.00;94491.69;10240508;28;20023;-71
2021/10/15 18:01:48;;;;;;;23.37;13.43;;;;;;;6.30;100.00;94478.19;10239523;28;20173;-66
2021/10/15 18:06:48;;;;;;;20.37;11.43;;;;;;;6.06;100.00;94487.56;10219409;28;20279;-73
2021/10/15 18:11:49;;;;;;;20.80;10.48;;;;;;;5.90;100.00;94486.56;10238798;28;20645;-67
2021/10/15 18:16:50;;;;;;;21.98;10.40;;;;;;;5.63;100.00;94482.78;10239858;28;20055;-71
2021/10/15 18:21:52;;;;;;;23.13;11.43;;;;;;;5.64;100.00;94487.06;10239010;28;20027;-68
2021/10/15 18:26:52;;;;;;;20.73;12.00;;;;;;;5.61;100.00;94489.41;10240024;28;20388;-71
2021/10/15 18:31:52;;;;;;;20.57;11.30;;;;;;;5.64;100.00;94480.94;10237794;28;20114;-72
2021/10/15 18:36:53;;;;;;;26.27;13.10;;;;;;;5.53;100.00;94480.00;10238690;28;20330;-72
2021/10/15 18:41:54;;;;;;;29.38;13.88;;;;;;;5.61;100.00;94497.41;10238881;29;20055;-69
2021/10/15 18:46:55;;;;;;;28.60;14.30;;;;;;;5.70;100.00;94487.94;10253381;28;20493;-71
2021/10/15 18:51:55;;;;;;;26.35;14.35;;;;;;;5.62;100.00;94481.19;10215704;28;20039;-73
2021/10/15 18:56:56;;;;;;;27.35;14.38;;;;;;;5.72;100.00;94483.16;10236656;29;20023;-68
2021/10/15 19:01:56;;;;;;;33.63;16.73;;;;;;;5.56;100.00;94474.16;10238775;28;20739;-71
2021/10/15 19:06:57;;;;;;;32.35;17.38;;;;;;;5.69;100.00;94464.19;10212770;28;20102;-72
2021/10/15 19:11:57;;;;;;;30.67;15.40;;;;;;;5.54;100.00;94468.28;10238316;28;20411;-72
2021/10/15 19:16:58;;;;;;;29.47;16.40;;;;;;;5.45;100.00;94477.75;10236096;28;20278;-72
2021/10/15 19:21:58;;;;;;;28.48;16.25;;;;;;;5.38;100.00;94469.94;10243352;28;20291;-73
2021/10/15 19:26:58;;;;;;;30.67;15.73;;;;;;;5.30;100.00;94478.34;10235533;29;20632;-73
2021/10/15 19:31:59;;;;;;;28.67;15.65;;;;;;;5.29;100.00;94479.44;10236235;28;20259;-73
2021/10/15 19:37:00;;;;;;;28.20;14.40;;;;;;;5.39;100.00;94473.44;10234758;29;20055;-74
2021/10/15 19:42:01;;;;;;;23.13;13.85;;;;;;;5.35;100.00;94454.44;10213489;29;20046;-69
2021/10/15 19:47:01;;;;;;;23.80;12.30;;;;;;;5.30;100.00;94455.19;10207120;29;20433;-73
2021/10/15 19:52:02;;;;;;;27.70;11.57;;;;;;;5.29;100.00;94456.25;10221932;29;20593;-73
2021/10/15 19:57:03;;;;;;;19.92;11.10;;;;;;;5.26;100.00;94456.75;10221164;29;20019;-68
2021/10/15 20:02:04;;;;;;;19.35;10.57;;;;;;;5.46;100.00;94452.72;10199654;29;20451;-66
2021/10/15 20:07:04;;;;;;;19.15;10.18;;;;;;;5.53;100.00;94444.53;10224549;29;20023;-74
2021/10/15 20:12:05;;;;;;;18.42;9.70;;;;;;;5.56;100.00;94439.50;10214799;29;20031;-67
2021/10/15 20:17:05;;;;;;;19.13;9.05;;;;;;;5.62;100.00;94448.38;10216269;28;20497;-68
2021/10/15 20:22:06;;;;;;;19.97;9.73;;;;;;;5.78;100.00;94438.69;10218850;29;20016;-69
2021/10/15 20:27:06;;;;;;;17.17;10.02;;;;;;;5.73;100.00;94446.63;10235339;29;20851;-67
2021/10/15 20:32:07;;;;;;;19.13;8.90;;;;;;;5.89;100.00;94442.25;10218826;28;20031;-69
2021/10/15 20:37:08;;;;;;;17.38;9.27;;;;;;;5.88;100.00;94456.66;10213087;29;20051;-67
2021/10/15 20:42:09;;;;;;;24.17;10.82;;;;;;;5.67;100.00;94455.63;10234495;28;20118;-74
2021/10/15 20:47:09;;;;;;;26.97;10.90;;;;;;;5.55;100.00;94440.56;10229840;29;20331;-72
2021/10/15 20:52:10;;;;;;;22.40;11.57;;;;;;;5.49;100.00;94452.22;10195516;29;20282;-73
2021/10/15 20:57:10;;;;;;;22.73;10.95;;;;;;;5.59;100.00;94446.22;10196423;29;20290;-73
2021/10/15 21:02:11;;;;;;;18.45;11.23;;;;;;;5.45;100.00;94437.78;10211735;29;20389;-71
2021/10/15 21:07:11;;;;;;;18.67;10.60;;;;;;;5.44;100.00;94423.66;10212339;28;20517;-76
2021/10/15 21:12:12;;;;;;;19.05;9.02;;;;;;;5.41;100.00;94412.69;10234558;29;20281;-68
2021/10/15 21:17:12;;;;;;;15.70;8.73;;;;;;;5.41;100.00;94408.13;10241776;28;20023;-69
2021/10/15 21:22:13;;;;;;;16.92;7.40;;;;;;;5.40;100.00;94413.72;10241531;28;20305;-70
2021/10/15 21:27:13;;;;;;;17.55;8.38;;;;;;;5.46;100.00;94402.88;10242957;29;20039;-68
2021/10/15 21:32:14;;;;;;;14.50;7.60;;;;;;;5.53;100.00;94418.69;10242898;28;20027;-67
2021/10/15 21:37:14;;;;;;;12.13;7.32;;;;;;;5.73;100.00;94403.97;10226204;29;20063;-68
2021/10/15 21:42:15;;;;;;;14.83;7.20;;;;;;;5.72;100.00;94419.19;10241838;28;20105;-68
2021/10/15 21:47:16;;;;;;;18.10;8.90;;;;;;;5.61;100.00;94409.44;10243256;28;20282;-71
2021/10/15 21:52:16;;;;;;;16.17;7.70;;;;;;;5.57;100.00;94403.81;10241600;28;20114;-68
2021/10/15 21:57:16;;;;;;;15.10;8.07;;;;;;;5.50;100.00;94399.72;10225452;29;20052;-69
2021/10/15 22:02:17;;;;;;;13.80;8.10;;;;;;;5.47;100.00;94398.38;10241648;29;20031;-67
2021/10/15 22:07:18;;;;;;;15.30;7.25;;;;;;;5.43;100.00;94397.25;10242682;28;20290;-68
2021/10/15 22:12:20;;;;;;;15.48;8.05;;;;;;;5.42;100.00;94399.09;10240728;29;20086;-67
2021/10/15 22:17:20;;;;;;;17.40;7.05;;;;;;;5.36;100.00;94400.09;10241089;28;20039;-74
2021/10/15 22:22:20;;;;;;;11.60;6.27;;;;;;;5.30;100.00;94399.25;10240750;29;20066;-69
2021/10/15 22:27:21;;;;;;;12.48;6.60;;;;;;;5.32;100.00;94393.66;10230750;28;20283;-69
2021/10/15 22:32:21;;;;;;;10.75;5.70;;;;;;;5.30;100.00;94396.56;10240692;28;20089;-66
2021/10/15 22:37:22;;;;;;;11.17;5.73;;;;;;;5.34;100.00;94401.41;10240308;28;20039;-67
2021/10/15 22:42:23;;;;;;;9.60;4.85;;;;;;;5.30;100.00;94393.09;10239877;28;20290;-67
2021/10/15 22:47:23;;;;;;;7.18;4.68;;;;;;;5.29;100.00;94394.97;10241966;29;20102;-67
2021/10/15 22:52:23;;;;;;;5.47;4.03;;;;;;;5.28;100.00;94395.22;10239435;29;20031;-72
2021/10/15 22:57:25;;;;;;;8.55;4.55;;;;;;;5.31;100.00;94387.50;10239422;29;20902;-68
2021/10/15 23:02:25;;;;;;;9.18;4.82;;;;;;;5.36;100.00;94385.97;10239798;29;20031;-68
2021/10/15 23:07:26;;;;;;;9.85;4.25;;;;;;;5.31;100.00;94384.84;10239159;28;20034;-68
2021/10/15 23:12:27;;;;;;;6.85;4.50;;;;;;;5.31;100.00;94382.19;10238548;29;20478;-68
2021/10/15 23:17:27;;;;;;;6.53;3.77;;;;;;;5.35;100.00;94397.69;10238632;29;20039;-69
2021/10/15 23:22:28;;;;;;;6.32;3.97;;;;;;;5.37;100.00;94390.25;10237559;29;20385;-65
2021/10/15 23:27:28;;;;;;;5.38;3.08;;;;;;;5.35;100.00;94400.34;10235425;28;20051;-72
2021/10/15 23:32:29;;;;;;;6.25;3.63;;;;;;;5.42;100.00;94407.09;10234952;28;20364;-67
2021/10/15 23:37:29;;;;;;;8.10;3.95;;;;;;;5.47;100.00;94393.03;10243047;28;20142;-71
2021/10/15 23:42:30;;;;;;;3.85;2.22;;;;;;;5.60;100.00;94402.50;10221857;29;20034;-68
2021/10/15 23:47:30;;;;;;;5.18;3.08;;;;;;;5.57;100.00;94398.47;10237058;29;20433;-73